createdAt,value
2019-05-21T00:00:56.193Z,26.19
2019-05-21T00:03:22.369Z,26.16
2019-05-21T00:05:48.521Z,25.88
2019-05-21T00:08:14.731Z,25.69
2019-05-21T00:10:40.876Z,25.68
2019-05-21T00:13:07.041Z,25.65
2019-05-21T00:15:33.249Z,25.75
2019-05-21T00:17:59.404Z,25.55
2019-05-21T00:20:25.680Z,25.00
2019-05-21T00:22:51.932Z,24.73
2019-05-21T00:25:18.080Z,24.45
2019-05-21T00:27:44.258Z,24.90
2019-05-21T00:30:47.541Z,24.41
2019-05-21T00:33:50.895Z,25.17
2019-05-21T00:36:56.008Z,25.37
2019-05-21T00:40:00.273Z,25.30
2019-05-21T00:42:32.825Z,24.82
2019-05-21T00:44:59.277Z,23.58
2019-05-21T00:47:25.451Z,24.50
2019-05-21T00:49:51.644Z,24.39
2019-05-21T00:52:17.827Z,24.93
2019-05-21T00:54:44.000Z,24.44
2019-05-21T00:57:10.210Z,24.57
2019-05-21T00:59:36.364Z,25.10
2019-05-21T01:02:02.540Z,25.29
2019-05-21T01:04:28.754Z,25.58
2019-05-21T01:06:54.908Z,25.50
2019-05-21T01:09:21.082Z,25.51
2019-05-21T01:11:47.511Z,25.44
2019-05-21T01:14:13.669Z,25.33
2019-05-21T01:16:39.855Z,25.10
2019-05-21T01:19:06.069Z,25.26
2019-05-21T01:21:32.223Z,25.28
2019-05-21T01:23:58.380Z,25.00
2019-05-21T01:26:24.594Z,25.06
2019-05-21T01:28:50.779Z,24.84
2019-05-21T01:31:16.960Z,24.99
2019-05-21T01:33:43.166Z,25.19
2019-05-21T01:36:09.327Z,24.64
2019-05-21T01:38:35.499Z,24.11
2019-05-21T01:41:01.693Z,23.03
2019-05-21T01:43:28.788Z,23.58
2019-05-21T01:45:54.964Z,23.82
2019-05-21T01:48:21.170Z,24.39
2019-05-21T01:50:47.346Z,24.34
2019-05-21T01:53:13.523Z,24.10
2019-05-21T01:55:39.703Z,24.32
2019-05-21T01:58:05.869Z,24.86
2019-05-21T02:00:32.155Z,24.68
2019-05-21T02:02:58.359Z,25.07
2019-05-21T02:05:32.543Z,24.74
2019-05-21T02:07:52.637Z,25.11
2019-05-21T02:10:18.881Z,25.66
2019-05-21T02:12:45.025Z,24.98
2019-05-21T02:15:11.610Z,25.03
2019-05-21T02:17:37.822Z,24.58
2019-05-21T02:20:04.472Z,24.77
2019-05-21T02:22:30.622Z,25.22
2019-05-21T02:24:56.826Z,25.72
2019-05-21T02:27:23.044Z,25.72
2019-05-21T02:29:49.260Z,25.64
2019-05-21T02:32:15.464Z,25.75
2019-05-21T02:34:41.618Z,25.98
2019-05-21T02:37:07.781Z,26.37
2019-05-21T02:39:33.998Z,26.20
2019-05-21T02:42:00.180Z,24.85
2019-05-21T02:44:26.513Z,25.83
2019-05-21T02:46:52.731Z,25.56
2019-05-21T02:49:18.887Z,25.56
2019-05-21T02:51:45.042Z,25.56
2019-05-21T02:54:11.252Z,25.46
2019-05-21T02:56:37.406Z,25.44
2019-05-21T02:59:03.638Z,25.64
2019-05-21T03:01:34.585Z,25.08
2019-05-21T03:04:00.822Z,25.07
2019-05-21T03:06:26.996Z,26.13
2019-05-21T03:08:53.200Z,26.99
2019-05-21T03:11:19.350Z,28.05
2019-05-21T03:13:45.527Z,27.95
2019-05-21T03:16:11.763Z,28.63
2019-05-21T03:18:38.002Z,28.26
2019-05-21T03:21:04.157Z,29.31
2019-05-21T03:23:30.480Z,29.68
2019-05-21T03:25:56.631Z,30.77
2019-05-21T03:28:22.807Z,30.98
2019-05-21T03:30:49.012Z,28.56
2019-05-21T03:33:15.569Z,27.94
2019-05-21T03:35:41.726Z,28.34
2019-05-21T03:38:07.931Z,27.74
2019-05-21T03:40:34.941Z,26.83
2019-05-21T03:43:01.111Z,27.75
2019-05-21T03:45:28.208Z,28.24
2019-05-21T03:47:54.389Z,30.44
2019-05-21T03:50:20.569Z,32.31
2019-05-21T03:52:46.750Z,32.38
2019-05-21T03:55:12.897Z,32.16
2019-05-21T03:57:39.171Z,33.39
2019-05-21T04:00:07.775Z,34.93
2019-05-21T04:02:33.945Z,36.94
2019-05-21T04:05:00.118Z,37.06
2019-05-21T04:07:26.303Z,37.31
2019-05-21T04:09:52.452Z,37.20
2019-05-21T04:12:18.633Z,36.08
2019-05-21T04:14:46.734Z,35.07
2019-05-21T04:17:34.568Z,34.21
2019-05-21T04:19:59.472Z,33.20
2019-05-21T04:22:25.636Z,34.58
2019-05-21T04:24:51.845Z,36.46
2019-05-21T04:27:18.009Z,38.25
2019-05-21T04:29:44.164Z,39.52
2019-05-21T04:32:10.334Z,36.90
2019-05-21T04:34:36.649Z,35.00
2019-05-21T04:37:10.492Z,33.41
2019-05-21T04:39:30.887Z,35.18
2019-05-21T04:41:57.293Z,36.62
2019-05-21T04:44:23.554Z,36.07
2019-05-21T04:46:49.885Z,36.19
2019-05-21T04:49:16.503Z,36.03
2019-05-21T04:51:42.661Z,35.94
2019-05-21T04:54:08.834Z,36.36
2019-05-21T04:56:35.039Z,35.41
2019-05-21T04:59:01.223Z,35.40
2019-05-21T05:01:27.393Z,35.69
2019-05-21T05:03:53.584Z,36.91
2019-05-21T05:06:19.842Z,38.11
2019-05-21T05:08:46.005Z,39.49
2019-05-21T05:11:12.213Z,41.99
2019-05-21T05:13:38.497Z,42.66
2019-05-21T05:16:04.759Z,41.30
2019-05-21T05:18:30.959Z,39.21
2019-05-21T05:20:57.142Z,39.78
2019-05-21T05:23:23.305Z,39.04
2019-05-21T05:25:49.555Z,38.19
2019-05-21T05:28:15.831Z,36.86
2019-05-21T05:30:41.988Z,36.06
2019-05-21T05:33:08.312Z,34.51
2019-05-21T05:35:34.465Z,33.13
2019-05-21T05:38:00.623Z,31.80
2019-05-21T05:40:26.849Z,30.95
2019-05-21T05:42:53.018Z,31.35
2019-05-21T05:45:19.396Z,31.71
2019-05-21T05:47:45.701Z,31.58
2019-05-21T05:50:30.787Z,31.41
2019-05-21T05:52:57.003Z,31.48
2019-05-21T05:55:23.167Z,31.80
2019-05-21T05:57:49.339Z,32.04
2019-05-21T06:00:16.558Z,32.46
2019-05-21T06:02:42.737Z,32.18
2019-05-21T06:05:09.418Z,31.97
2019-05-21T06:07:35.746Z,32.07
2019-05-21T06:10:03.542Z,32.84
2019-05-21T06:12:29.943Z,34.06
2019-05-21T06:14:56.135Z,35.24
2019-05-21T06:17:22.299Z,35.15
2019-05-21T06:19:48.478Z,35.03
2019-05-21T06:22:14.688Z,34.65
2019-05-21T06:24:40.974Z,33.19
2019-05-21T06:27:07.162Z,33.10
2019-05-21T06:29:33.361Z,33.78
2019-05-21T06:31:59.524Z,33.10
2019-05-21T06:34:25.712Z,32.31
2019-05-21T06:36:51.926Z,32.32
2019-05-21T06:39:18.099Z,30.19
2019-05-21T06:41:44.279Z,30.86
2019-05-21T06:44:10.590Z,32.64
2019-05-21T06:46:36.755Z,33.57
2019-05-21T06:49:02.957Z,32.36
2019-05-21T06:51:29.144Z,31.77
2019-05-21T06:53:55.315Z,33.28
2019-05-21T06:56:21.500Z,31.85
2019-05-21T06:58:47.699Z,32.62
2019-05-21T07:01:13.907Z,33.17
2019-05-21T07:03:40.166Z,34.43
2019-05-21T07:06:07.293Z,33.34
2019-05-21T07:08:35.226Z,33.40
2019-05-21T07:11:01.617Z,34.52
2019-05-21T07:13:31.048Z,34.05
2019-05-21T07:15:56.222Z,33.11
2019-05-21T07:18:22.429Z,33.65
2019-05-21T07:20:48.622Z,34.42
2019-05-21T07:23:14.803Z,35.80
2019-05-21T07:25:40.969Z,36.72
2019-05-21T07:28:07.169Z,36.56
2019-05-21T07:30:33.326Z,36.26
2019-05-21T07:32:59.541Z,37.21
2019-05-21T07:35:25.752Z,36.52
2019-05-21T07:37:52.158Z,35.63
2019-05-21T07:40:18.573Z,35.63
2019-05-21T07:42:44.763Z,36.51
2019-05-21T07:45:11.327Z,35.45
2019-05-21T07:47:37.515Z,33.37
2019-05-21T07:50:04.983Z,34.92
2019-05-21T07:52:31.138Z,35.18
2019-05-21T07:54:57.321Z,34.90
2019-05-21T07:57:23.541Z,34.02
2019-05-21T07:59:49.805Z,34.85
2019-05-21T08:02:15.997Z,35.37
2019-05-21T08:04:42.198Z,35.22
2019-05-21T08:07:08.452Z,35.26
2019-05-21T08:09:34.636Z,34.77
2019-05-21T08:12:00.823Z,32.91
2019-05-21T08:14:26.973Z,35.02
2019-05-21T08:16:53.151Z,36.12
2019-05-21T08:19:19.332Z,33.88
2019-05-21T08:21:45.620Z,33.77
2019-05-21T08:24:11.789Z,33.41
2019-05-21T08:26:37.974Z,35.02
2019-05-21T08:29:04.129Z,33.07
2019-05-21T08:31:30.406Z,34.20
2019-05-21T08:33:56.722Z,35.19
2019-05-21T08:36:22.886Z,35.23
2019-05-21T08:38:49.066Z,33.75
2019-05-21T08:41:15.343Z,33.44
2019-05-21T08:43:41.501Z,33.69
2019-05-21T08:46:07.689Z,33.22
2019-05-21T08:48:33.996Z,31.41
2019-05-21T08:51:02.840Z,32.99
2019-05-21T08:53:29.006Z,33.19
2019-05-21T08:55:55.323Z,33.33
2019-05-21T08:58:21.478Z,32.71
2019-05-21T09:00:47.778Z,32.57
2019-05-21T09:03:14.102Z,32.25
2019-05-21T09:05:40.255Z,32.05
2019-05-21T09:08:06.556Z,32.71
2019-05-21T09:10:32.794Z,33.39
2019-05-21T09:12:58.968Z,34.05
2019-05-21T09:15:25.126Z,32.98
2019-05-21T09:17:51.356Z,32.73
2019-05-21T09:20:17.915Z,32.22
2019-05-21T09:22:44.067Z,32.41
2019-05-21T09:25:10.790Z,31.37
2019-05-21T09:27:37.158Z,31.50
2019-05-21T09:30:05.629Z,33.11
2019-05-21T09:32:31.852Z,32.78
2019-05-21T09:34:58.021Z,33.05
2019-05-21T09:37:24.200Z,34.83
2019-05-21T09:39:50.401Z,34.75
2019-05-21T09:42:16.555Z,34.18
2019-05-21T09:44:42.748Z,34.06
2019-05-21T09:47:08.952Z,34.33
2019-05-21T09:49:35.113Z,33.12
2019-05-21T09:52:01.283Z,33.43
2019-05-21T09:54:27.488Z,33.03
2019-05-21T09:56:53.756Z,34.13
2019-05-21T09:59:24.607Z,34.22
2019-05-21T10:02:10.553Z,34.31
2019-05-21T10:04:36.813Z,34.58
2019-05-21T10:07:03.377Z,35.45
2019-05-21T10:09:29.592Z,34.55
2019-05-21T10:11:55.763Z,34.04
2019-05-21T10:14:22.041Z,33.50
2019-05-21T10:16:48.250Z,35.53
2019-05-21T10:19:14.527Z,35.94
2019-05-21T10:21:40.781Z,35.63
2019-05-21T10:24:06.999Z,35.74
2019-05-21T10:26:33.693Z,35.92
2019-05-21T10:28:59.852Z,36.93
2019-05-21T10:31:26.153Z,34.87
2019-05-21T10:33:52.336Z,33.95
2019-05-21T10:36:18.598Z,33.45
2019-05-21T10:38:44.804Z,34.08
2019-05-21T10:41:10.986Z,33.71
2019-05-21T10:43:37.149Z,35.19
2019-05-21T10:46:04.230Z,33.55
2019-05-21T10:48:30.467Z,32.34
2019-05-21T10:50:56.629Z,32.08
2019-05-21T10:53:26.517Z,33.71
2019-05-21T10:55:52.685Z,33.10
2019-05-21T10:58:18.898Z,33.38
2019-05-21T11:00:47.182Z,32.68
2019-05-21T11:03:31.720Z,33.30
2019-05-21T11:06:09.652Z,33.05
2019-05-21T11:08:26.117Z,33.76
2019-05-21T11:10:52.287Z,32.44
2019-05-21T11:13:18.774Z,32.29
2019-05-21T11:15:46.264Z,33.32
2019-05-21T11:18:12.461Z,34.11
2019-05-21T11:20:39.632Z,33.99
2019-05-21T11:23:05.813Z,32.46
2019-05-21T11:25:32.305Z,32.52
2019-05-21T11:27:58.505Z,33.02
2019-05-21T11:30:24.770Z,33.79
2019-05-21T11:32:50.960Z,32.29
2019-05-21T11:35:17.245Z,33.09
2019-05-21T11:37:47.647Z,33.41
2019-05-21T11:40:13.259Z,35.69
2019-05-21T11:42:39.636Z,34.15
2019-05-21T11:45:06.494Z,32.52
2019-05-21T11:47:32.675Z,33.29
2019-05-21T11:49:58.901Z,33.76
2019-05-21T11:52:25.058Z,32.71
2019-05-21T11:54:51.256Z,32.25
2019-05-21T11:57:17.548Z,33.90
2019-05-21T11:59:43.701Z,32.93
2019-05-21T12:02:10.385Z,32.21
2019-05-21T12:04:36.574Z,32.03
2019-05-21T12:07:03.712Z,31.34
2019-05-21T12:09:30.164Z,30.66
2019-05-21T12:11:56.367Z,31.61
2019-05-21T12:14:22.552Z,32.51
2019-05-21T12:16:48.716Z,33.59
2019-05-21T12:19:15.021Z,32.98
2019-05-21T12:21:42.392Z,31.32
2019-05-21T12:24:08.769Z,30.08
2019-05-21T12:26:34.960Z,30.36
2019-05-21T12:29:01.116Z,29.89
2019-05-21T12:31:27.295Z,30.83
2019-05-21T12:33:53.595Z,32.69
2019-05-21T12:36:19.900Z,34.03
2019-05-21T12:38:46.192Z,32.59
2019-05-21T12:41:13.672Z,32.20
2019-05-21T12:43:40.259Z,33.44
2019-05-21T12:46:06.531Z,34.14
2019-05-21T12:48:32.843Z,33.71
2019-05-21T12:50:59.009Z,33.93
2019-05-21T12:53:25.184Z,33.50
2019-05-21T12:55:52.384Z,34.02
2019-05-21T12:58:18.556Z,32.77
2019-05-21T13:00:44.838Z,33.70
2019-05-21T13:03:11.077Z,32.93
2019-05-21T13:05:37.214Z,33.47
2019-05-21T13:08:03.621Z,34.96
2019-05-21T13:10:29.800Z,33.68
2019-05-21T13:12:55.961Z,33.23
2019-05-21T13:15:22.263Z,33.80
2019-05-21T13:17:48.483Z,32.51
2019-05-21T13:20:15.540Z,32.24
2019-05-21T13:22:41.737Z,32.96
2019-05-21T13:25:07.936Z,32.63
2019-05-21T13:27:34.095Z,32.48
2019-05-21T13:30:00.474Z,32.06
2019-05-21T13:32:26.665Z,31.64
2019-05-21T13:34:52.845Z,31.91
2019-05-21T13:37:19.027Z,31.76
2019-05-21T13:39:49.837Z,32.14
2019-05-21T13:42:13.270Z,30.24
2019-05-21T13:44:39.592Z,28.09
2019-05-21T13:47:05.891Z,23.63
2019-05-21T13:49:32.041Z,18.54
2019-05-21T13:51:58.217Z,19.12
2019-05-21T13:54:24.504Z,20.45
2019-05-21T13:56:51.514Z,20.76
2019-05-21T13:59:18.006Z,21.17
2019-05-21T14:01:44.300Z,22.09
2019-05-21T14:04:10.549Z,23.87
2019-05-21T14:06:36.699Z,24.35
2019-05-21T14:09:04.906Z,24.38
2019-05-21T14:11:31.965Z,24.81
2019-05-21T14:13:58.142Z,26.32
2019-05-21T14:16:24.517Z,26.73
2019-05-21T14:18:50.740Z,24.86
2019-05-21T14:21:17.069Z,24.98
2019-05-21T14:23:43.274Z,25.77
2019-05-21T14:26:09.615Z,26.00
2019-05-21T14:28:35.784Z,26.52
2019-05-21T14:31:02.100Z,27.95
2019-05-21T14:33:28.256Z,27.85
2019-05-21T14:35:54.421Z,28.06
2019-05-21T14:38:20.628Z,28.39
2019-05-21T14:40:47.683Z,28.66
2019-05-21T14:43:13.863Z,27.27
2019-05-21T14:45:40.170Z,27.37
2019-05-21T14:48:06.326Z,27.84
2019-05-21T14:50:32.516Z,28.33
2019-05-21T14:52:58.695Z,28.05
2019-05-21T14:55:24.848Z,28.09
2019-05-21T14:57:51.047Z,27.98
2019-05-21T15:13:32.901Z,28.95
2019-05-21T15:15:59.077Z,29.58
2019-05-21T15:18:25.349Z,30.77
2019-05-21T15:20:56.052Z,29.28
2019-05-21T15:23:22.395Z,31.27
2019-05-21T15:25:48.569Z,30.55
2019-05-21T15:28:14.767Z,30.90
2019-05-21T15:43:11.014Z,29.30
2019-05-21T15:45:37.174Z,29.51
2019-05-21T15:48:03.453Z,27.89
2019-05-21T15:50:29.647Z,28.66
2019-05-21T15:52:56.133Z,30.17
2019-05-21T15:55:22.317Z,31.71
2019-05-21T15:57:48.526Z,32.64
2019-05-21T16:00:15.590Z,33.09
2019-05-21T16:02:41.843Z,31.73
2019-05-21T16:05:08.427Z,30.88
2019-05-21T16:07:34.681Z,31.05
2019-05-21T16:10:00.883Z,32.14
2019-05-21T16:12:27.053Z,31.85
2019-05-21T16:14:53.232Z,32.49
2019-05-21T16:17:19.417Z,32.11
2019-05-21T16:19:45.596Z,32.61
2019-05-21T16:22:11.873Z,32.84
2019-05-21T16:24:38.069Z,31.71
2019-05-21T16:27:04.263Z,31.73
2019-05-21T16:29:30.444Z,30.67
2019-05-21T16:31:56.718Z,29.03
2019-05-21T16:34:22.887Z,29.12
2019-05-21T16:36:49.072Z,29.70
2019-05-21T16:39:18.943Z,29.03
2019-05-21T16:41:45.612Z,29.48
2019-05-21T16:44:12.110Z,28.81
2019-05-21T16:46:38.406Z,28.77
2019-05-21T16:49:04.584Z,28.09
2019-05-21T16:51:30.772Z,28.86
2019-05-21T16:53:57.454Z,28.88
2019-05-21T16:56:23.639Z,28.97
2019-05-21T16:58:49.839Z,28.29
2019-05-21T17:01:16.620Z,28.24
2019-05-21T17:03:42.935Z,29.38
2019-05-21T17:06:09.192Z,28.59
2019-05-21T17:08:35.370Z,29.30
2019-05-21T17:11:01.575Z,28.60
2019-05-21T17:13:27.736Z,28.57
2019-05-21T17:15:53.934Z,28.53
2019-05-21T17:18:20.155Z,28.90
2019-05-21T17:20:46.309Z,28.30
2019-05-21T17:23:12.475Z,29.16
2019-05-21T17:25:38.700Z,28.81
2019-05-21T17:28:04.939Z,28.23
2019-05-21T17:30:31.330Z,28.13
2019-05-21T17:32:57.537Z,28.25
2019-05-21T17:35:23.689Z,27.97
2019-05-21T17:37:49.865Z,28.50
2019-05-21T17:40:16.058Z,27.55
2019-05-21T17:42:42.227Z,26.90
2019-05-21T17:45:08.924Z,26.74
2019-05-21T17:47:36.079Z,27.55
2019-05-21T17:50:04.257Z,27.11
2019-05-21T17:52:30.445Z,26.90
2019-05-21T17:54:57.305Z,27.25
2019-05-21T17:57:24.187Z,26.88
2019-05-21T17:59:50.469Z,26.98
2019-05-21T18:02:17.388Z,27.67
2019-05-21T18:04:43.857Z,26.34
2019-05-21T18:07:11.736Z,26.91
2019-05-21T18:09:38.627Z,26.45
2019-05-21T18:12:09.003Z,25.93
2019-05-21T18:14:35.386Z,26.47
2019-05-21T18:17:01.659Z,26.47
2019-05-21T18:19:28.359Z,26.76
2019-05-21T18:21:54.518Z,26.83
2019-05-21T18:24:20.849Z,26.62
2019-05-21T18:26:46.997Z,27.18
2019-05-21T18:29:13.173Z,26.26
2019-05-21T18:31:39.491Z,27.00
2019-05-21T18:34:05.746Z,25.41
2019-05-21T18:36:32.016Z,26.21
2019-05-21T18:38:58.268Z,25.64
2019-05-21T18:41:24.446Z,25.29
2019-05-21T18:43:50.817Z,25.78
2019-05-21T18:46:17.030Z,25.59
2019-05-21T18:48:43.181Z,25.42
2019-05-21T18:51:09.338Z,25.73
2019-05-21T18:53:35.751Z,25.22
2019-05-21T18:56:01.907Z,25.24
2019-05-21T18:58:28.185Z,25.62
2019-05-21T19:00:54.412Z,25.77
2019-05-21T19:03:26.182Z,24.55
2019-05-21T19:05:48.669Z,24.96
2019-05-21T19:08:14.869Z,25.66
2019-05-21T19:10:41.027Z,25.28
2019-05-21T19:13:07.204Z,25.47
2019-05-21T19:15:33.540Z,25.43
2019-05-21T19:17:59.697Z,25.28
2019-05-21T19:20:25.859Z,25.47
2019-05-21T19:22:52.162Z,25.22
2019-05-21T19:25:18.441Z,24.93
2019-05-21T19:27:44.754Z,24.93
2019-05-21T19:30:12.010Z,24.89
2019-05-21T19:32:38.184Z,25.20
2019-05-21T19:35:05.102Z,25.32
2019-05-21T19:37:31.415Z,25.71
2019-05-21T19:39:57.864Z,25.20
2019-05-21T19:42:24.060Z,25.26
2019-05-21T19:44:50.404Z,25.32
2019-05-21T19:47:16.684Z,25.05
2019-05-21T19:49:42.964Z,24.65
2019-05-21T19:52:09.201Z,25.42
2019-05-21T19:54:35.507Z,24.72
2019-05-21T19:57:02.088Z,25.53
2019-05-21T19:59:28.877Z,25.21
2019-05-21T20:01:55.484Z,24.92
2019-05-21T20:04:23.371Z,23.55
2019-05-21T20:06:49.707Z,24.53
2019-05-21T20:09:16.708Z,24.96
2019-05-21T20:11:43.081Z,24.67
2019-05-21T20:14:09.915Z,24.12
2019-05-21T20:16:37.108Z,24.04
2019-05-21T20:19:04.617Z,24.93
2019-05-21T20:21:31.562Z,24.76
2019-05-21T20:23:57.830Z,25.17
2019-05-21T20:26:24.234Z,24.66
2019-05-21T20:28:50.556Z,25.54
2019-05-21T20:31:16.939Z,25.73
2019-05-21T20:33:44.424Z,25.63
2019-05-21T20:36:10.759Z,25.41
2019-05-21T20:38:37.156Z,23.91
2019-05-21T20:41:04.367Z,23.36
2019-05-21T20:43:30.740Z,23.59
2019-05-21T20:45:57.017Z,24.60
2019-05-21T20:48:25.595Z,23.86
2019-05-21T20:50:52.686Z,23.81
2019-05-21T20:53:18.882Z,24.70
2019-05-21T20:55:46.047Z,24.39
2019-05-21T20:58:12.933Z,24.27
2019-05-21T21:00:52.925Z,24.48
2019-05-21T21:03:19.334Z,24.53
2019-05-21T21:05:45.516Z,24.01
2019-05-21T21:08:13.394Z,24.03
2019-05-21T21:10:40.178Z,24.24
2019-05-21T21:13:08.430Z,24.47
2019-05-21T21:15:35.302Z,24.85
2019-05-21T21:18:02.610Z,24.51
2019-05-21T21:20:28.804Z,24.26
2019-05-21T21:22:55.439Z,24.80
2019-05-21T21:25:23.527Z,24.80
2019-05-21T21:27:49.783Z,24.93
2019-05-21T21:30:16.155Z,24.60
2019-05-21T21:32:42.351Z,25.12
2019-05-21T21:35:10.227Z,25.60
2019-05-21T21:37:36.598Z,25.86
2019-05-21T21:40:05.589Z,25.99
2019-05-21T21:42:32.782Z,26.63
2019-05-21T21:44:59.454Z,27.10
2019-05-21T21:47:25.961Z,26.87
2019-05-21T21:49:52.539Z,26.12
2019-05-21T21:52:18.717Z,24.70
2019-05-21T21:54:45.614Z,25.40
2019-05-21T21:57:11.873Z,25.73
2019-05-21T21:59:38.053Z,25.78
2019-05-21T22:02:30.411Z,25.67
2019-05-21T22:04:56.993Z,25.96
2019-05-21T22:07:23.776Z,24.87
2019-05-21T22:09:50.511Z,25.16
2019-05-21T22:12:17.095Z,25.21
2019-05-21T22:14:51.586Z,24.02
2019-05-21T22:17:14.689Z,23.78
2019-05-21T22:19:40.885Z,25.13
2019-05-21T22:22:07.613Z,24.71
2019-05-21T22:24:34.078Z,25.29
2019-05-21T22:27:00.376Z,25.52
2019-05-21T22:29:26.670Z,25.25
2019-05-21T22:31:52.905Z,23.78
2019-05-21T22:34:20.095Z,24.20
2019-05-21T22:36:46.396Z,23.77
2019-05-21T22:39:14.513Z,24.32
2019-05-21T22:41:41.336Z,23.80
2019-05-21T22:44:07.531Z,24.66
2019-05-21T22:46:33.741Z,24.16
2019-05-21T22:49:00.392Z,24.93
2019-05-21T22:51:26.563Z,23.74
2019-05-21T22:53:52.797Z,23.96
2019-05-21T22:56:19.073Z,23.76
2019-05-21T22:58:45.341Z,23.42
2019-05-21T23:01:11.668Z,23.92
2019-05-21T23:03:37.941Z,23.96
2019-05-21T23:06:04.137Z,23.96
2019-05-21T23:08:31.279Z,23.89
2019-05-21T23:10:57.463Z,23.93
2019-05-21T23:13:23.645Z,24.69
2019-05-21T23:15:50.748Z,24.78
2019-05-21T23:18:17.732Z,25.05
2019-05-21T23:20:44.527Z,24.46
2019-05-21T23:23:10.865Z,24.92
2019-05-21T23:25:38.976Z,25.37
2019-05-21T23:28:05.456Z,25.50
2019-05-21T23:30:31.967Z,25.71
2019-05-21T23:32:58.146Z,25.76
2019-05-21T23:35:25.423Z,25.54
2019-05-21T23:37:52.743Z,25.06
2019-05-21T23:40:21.436Z,25.33
2019-05-21T23:42:47.712Z,24.93
2019-05-21T23:45:15.047Z,25.40
2019-05-21T23:47:41.225Z,25.56
2019-05-21T23:50:08.699Z,25.62
2019-05-21T23:52:37.243Z,25.72
2019-05-21T23:55:05.230Z,25.55
2019-05-21T23:57:33.506Z,25.25
